sensor_id;sensor_type;location;lat;lon;timestamp;P1;durP1;ratioP1;P2;durP2;ratioP2
78484;SDS011;67773;50.806;8.776;2023-06-26T00:01:12;8.57;;;6.77;;
78484;SDS011;67773;50.806;8.776;2023-06-26T00:03:37;8.53;;;7.30;;
78484;SDS011;67773;50.806;8.776;2023-06-26T00:06:02;9.73;;;7.37;;
78484;SDS011;67773;50.806;8.776;2023-06-26T00:08:28;9.13;;;7.67;;
78484;SDS011;67773;50.806;8.776;2023-06-26T00:10:53;8.57;;;6.85;;
78484;SDS011;67773;50.806;8.776;2023-06-26T00:13:19;9.07;;;7.55;;
78484;SDS011;67773;50.806;8.776;2023-06-26T00:15:44;8.52;;;7.22;;
78484;SDS011;67773;50.806;8.776;2023-06-26T00:18:10;8.47;;;6.60;;
78484;SDS011;67773;50.806;8.776;2023-06-26T00:20:35;7.50;;;6.07;;
78484;SDS011;67773;50.806;8.776;2023-06-26T00:23:01;7.93;;;7.03;;
78484;SDS011;67773;50.806;8.776;2023-06-26T00:25:26;8.63;;;6.93;;
78484;SDS011;67773;50.806;8.776;2023-06-26T00:27:51;7.87;;;6.43;;
78484;SDS011;67773;50.806;8.776;2023-06-26T00:30:17;9.13;;;7.33;;
78484;SDS011;67773;50.806;8.776;2023-06-26T00:32:42;9.45;;;8.27;;
78484;SDS011;67773;50.806;8.776;2023-06-26T00:35:08;9.23;;;7.40;;
78484;SDS011;67773;50.806;8.776;2023-06-26T00:37:33;8.73;;;7.03;;
78484;SDS011;67773;50.806;8.776;2023-06-26T00:39:59;8.85;;;7.35;;
78484;SDS011;67773;50.806;8.776;2023-06-26T00:42:24;8.67;;;7.33;;
78484;SDS011;67773;50.806;8.776;2023-06-26T00:44:49;9.93;;;7.23;;
78484;SDS011;67773;50.806;8.776;2023-06-26T00:47:15;9.93;;;7.40;;
78484;SDS011;67773;50.806;8.776;2023-06-26T00:49:42;8.45;;;7.13;;
78484;SDS011;67773;50.806;8.776;2023-06-26T00:52:07;10.50;;;7.13;;
78484;SDS011;67773;50.806;8.776;2023-06-26T00:54:33;9.10;;;7.32;;
78484;SDS011;67773;50.806;8.776;2023-06-26T00:56:59;8.80;;;6.72;;
78484;SDS011;67773;50.806;8.776;2023-06-26T00:59:24;8.90;;;7.60;;
78484;SDS011;67773;50.806;8.776;2023-06-26T01:01:49;8.33;;;7.23;;
78484;SDS011;67773;50.806;8.776;2023-06-26T01:04:15;10.27;;;7.90;;
78484;SDS011;67773;50.806;8.776;2023-06-26T01:06:46;11.05;;;7.20;;
78484;SDS011;67773;50.806;8.776;2023-06-26T01:09:19;9.48;;;7.78;;
78484;SDS011;67773;50.806;8.776;2023-06-26T01:11:46;9.80;;;7.28;;
78484;SDS011;67773;50.806;8.776;2023-06-26T01:14:12;8.88;;;7.35;;
78484;SDS011;67773;50.806;8.776;2023-06-26T01:16:38;9.20;;;7.22;;
78484;SDS011;67773;50.806;8.776;2023-06-26T01:19:06;8.15;;;6.65;;
78484;SDS011;67773;50.806;8.776;2023-06-26T01:21:40;9.68;;;6.97;;
78484;SDS011;67773;50.806;8.776;2023-06-26T01:24:10;8.43;;;7.05;;
78484;SDS011;67773;50.806;8.776;2023-06-26T01:26:37;8.57;;;6.55;;
78484;SDS011;67773;50.806;8.776;2023-06-26T01:29:06;7.95;;;7.10;;
78484;SDS011;67773;50.806;8.776;2023-06-26T01:31:34;10.23;;;7.53;;
78484;SDS011;67773;50.806;8.776;2023-06-26T01:34:00;9.13;;;7.28;;
78484;SDS011;67773;50.806;8.776;2023-06-26T01:36:26;12.15;;;7.22;;
78484;SDS011;67773;50.806;8.776;2023-06-26T01:38:52;8.45;;;6.70;;
78484;SDS011;67773;50.806;8.776;2023-06-26T01:41:17;8.75;;;6.88;;
78484;SDS011;67773;50.806;8.776;2023-06-26T01:49:33;8.85;;;7.25;;
78484;SDS011;67773;50.806;8.776;2023-06-26T01:54:36;10.85;;;7.53;;
78484;SDS011;67773;50.806;8.776;2023-06-26T01:57:07;9.10;;;7.05;;
78484;SDS011;67773;50.806;8.776;2023-06-26T01:59:34;10.25;;;7.22;;
78484;SDS011;67773;50.806;8.776;2023-06-26T02:02:01;10.57;;;7.47;;
78484;SDS011;67773;50.806;8.776;2023-06-26T02:04:26;10.35;;;7.28;;
78484;SDS011;67773;50.806;8.776;2023-06-26T02:06:51;9.90;;;7.43;;
78484;SDS011;67773;50.806;8.776;2023-06-26T02:09:17;8.40;;;7.07;;
78484;SDS011;67773;50.806;8.776;2023-06-26T02:11:42;9.30;;;7.40;;
78484;SDS011;67773;50.806;8.776;2023-06-26T02:14:08;9.40;;;7.30;;
78484;SDS011;67773;50.806;8.776;2023-06-26T02:16:34;9.82;;;8.05;;
78484;SDS011;67773;50.806;8.776;2023-06-26T02:18:59;9.83;;;7.50;;
78484;SDS011;67773;50.806;8.776;2023-06-26T02:21:24;9.13;;;7.10;;
78484;SDS011;67773;50.806;8.776;2023-06-26T02:23:50;10.37;;;8.03;;
78484;SDS011;67773;50.806;8.776;2023-06-26T02:26:15;9.00;;;7.43;;
78484;SDS011;67773;50.806;8.776;2023-06-26T02:28:40;9.57;;;7.43;;
78484;SDS011;67773;50.806;8.776;2023-06-26T02:31:06;11.70;;;8.70;;
78484;SDS011;67773;50.806;8.776;2023-06-26T02:33:31;9.70;;;7.63;;
78484;SDS011;67773;50.806;8.776;2023-06-26T02:35:57;9.52;;;7.97;;
78484;SDS011;67773;50.806;8.776;2023-06-26T02:38:22;12.00;;;8.07;;
78484;SDS011;67773;50.806;8.776;2023-06-26T02:40:47;10.57;;;8.40;;
78484;SDS011;67773;50.806;8.776;2023-06-26T02:43:13;10.93;;;8.67;;
78484;SDS011;67773;50.806;8.776;2023-06-26T02:45:38;12.33;;;8.63;;
78484;SDS011;67773;50.806;8.776;2023-06-26T02:48:03;10.83;;;8.90;;
78484;SDS011;67773;50.806;8.776;2023-06-26T02:50:29;10.32;;;7.65;;
78484;SDS011;67773;50.806;8.776;2023-06-26T02:52:54;11.07;;;7.77;;
78484;SDS011;67773;50.806;8.776;2023-06-26T02:55:19;9.70;;;7.73;;
78484;SDS011;67773;50.806;8.776;2023-06-26T02:57:45;9.40;;;7.72;;
78484;SDS011;67773;50.806;8.776;2023-06-26T03:00:11;11.43;;;8.27;;
78484;SDS011;67773;50.806;8.776;2023-06-26T03:02:37;12.10;;;8.23;;
78484;SDS011;67773;50.806;8.776;2023-06-26T03:05:03;10.37;;;7.63;;
78484;SDS011;67773;50.806;8.776;2023-06-26T03:07:29;11.98;;;7.75;;
78484;SDS011;67773;50.806;8.776;2023-06-26T03:09:54;10.60;;;7.45;;
78484;SDS011;67773;50.806;8.776;2023-06-26T03:12:20;12.00;;;8.93;;
78484;SDS011;67773;50.806;8.776;2023-06-26T03:14:45;9.97;;;7.53;;
78484;SDS011;67773;50.806;8.776;2023-06-26T03:17:10;10.30;;;8.10;;
78484;SDS011;67773;50.806;8.776;2023-06-26T03:19:36;10.57;;;8.60;;
78484;SDS011;67773;50.806;8.776;2023-06-26T03:22:01;11.83;;;7.63;;
78484;SDS011;67773;50.806;8.776;2023-06-26T03:24:26;9.98;;;8.00;;
78484;SDS011;67773;50.806;8.776;2023-06-26T03:26:52;11.70;;;8.30;;
78484;SDS011;67773;50.806;8.776;2023-06-26T03:29:17;10.88;;;8.38;;
78484;SDS011;67773;50.806;8.776;2023-06-26T03:31:42;10.63;;;8.20;;
78484;SDS011;67773;50.806;8.776;2023-06-26T03:34:08;11.30;;;8.83;;
78484;SDS011;67773;50.806;8.776;2023-06-26T03:36:33;10.13;;;8.37;;
78484;SDS011;67773;50.806;8.776;2023-06-26T03:38:58;9.30;;;8.30;;
78484;SDS011;67773;50.806;8.776;2023-06-26T03:41:25;10.38;;;7.95;;
78484;SDS011;67773;50.806;8.776;2023-06-26T03:43:50;13.27;;;8.53;;
78484;SDS011;67773;50.806;8.776;2023-06-26T03:46:15;11.27;;;8.50;;
78484;SDS011;67773;50.806;8.776;2023-06-26T03:48:41;10.93;;;7.78;;
78484;SDS011;67773;50.806;8.776;2023-06-26T03:51:06;12.23;;;9.07;;
78484;SDS011;67773;50.806;8.776;2023-06-26T03:53:32;10.75;;;8.13;;
78484;SDS011;67773;50.806;8.776;2023-06-26T03:55:58;11.00;;;8.38;;
78484;SDS011;67773;50.806;8.776;2023-06-26T03:58:24;10.13;;;8.93;;
78484;SDS011;67773;50.806;8.776;2023-06-26T04:00:50;12.88;;;8.75;;
78484;SDS011;67773;50.806;8.776;2023-06-26T04:03:15;10.48;;;8.60;;
78484;SDS011;67773;50.806;8.776;2023-06-26T04:05:41;10.98;;;8.23;;
78484;SDS011;67773;50.806;8.776;2023-06-26T04:08:06;12.37;;;9.60;;
78484;SDS011;67773;50.806;8.776;2023-06-26T04:10:31;10.97;;;8.73;;
78484;SDS011;67773;50.806;8.776;2023-06-26T04:12:57;10.13;;;8.50;;
78484;SDS011;67773;50.806;8.776;2023-06-26T04:15:22;12.37;;;8.13;;
78484;SDS011;67773;50.806;8.776;2023-06-26T04:17:47;10.50;;;8.57;;
78484;SDS011;67773;50.806;8.776;2023-06-26T04:20:12;9.27;;;8.10;;
78484;SDS011;67773;50.806;8.776;2023-06-26T04:22:38;12.67;;;9.03;;
78484;SDS011;67773;50.806;8.776;2023-06-26T04:25:03;11.90;;;8.47;;
78484;SDS011;67773;50.806;8.776;2023-06-26T04:27:29;11.05;;;8.90;;
78484;SDS011;67773;50.806;8.776;2023-06-26T04:29:55;10.75;;;8.75;;
78484;SDS011;67773;50.806;8.776;2023-06-26T04:32:20;12.38;;;9.48;;
78484;SDS011;67773;50.806;8.776;2023-06-26T04:34:46;10.30;;;8.63;;
78484;SDS011;67773;50.806;8.776;2023-06-26T04:37:12;10.55;;;8.88;;
78484;SDS011;67773;50.806;8.776;2023-06-26T04:39:41;14.13;;;9.75;;
78484;SDS011;67773;50.806;8.776;2023-06-26T04:42:06;11.40;;;9.35;;
78484;SDS011;67773;50.806;8.776;2023-06-26T04:44:32;12.80;;;10.10;;
78484;SDS011;67773;50.806;8.776;2023-06-26T04:46:57;12.88;;;10.02;;
78484;SDS011;67773;50.806;8.776;2023-06-26T04:49:23;12.27;;;9.37;;
78484;SDS011;67773;50.806;8.776;2023-06-26T04:51:48;13.27;;;9.33;;
78484;SDS011;67773;50.806;8.776;2023-06-26T04:54:15;10.90;;;8.93;;
78484;SDS011;67773;50.806;8.776;2023-06-26T04:56:41;12.95;;;10.13;;
78484;SDS011;67773;50.806;8.776;2023-06-26T04:59:06;12.70;;;9.37;;
78484;SDS011;67773;50.806;8.776;2023-06-26T05:01:32;11.77;;;9.25;;
78484;SDS011;67773;50.806;8.776;2023-06-26T05:03:58;12.20;;;10.13;;
78484;SDS011;67773;50.806;8.776;2023-06-26T05:06:23;12.40;;;9.75;;
78484;SDS011;67773;50.806;8.776;2023-06-26T05:08:49;14.02;;;9.40;;
78484;SDS011;67773;50.806;8.776;2023-06-26T05:11:14;11.57;;;9.00;;
78484;SDS011;67773;50.806;8.776;2023-06-26T05:13:39;12.50;;;9.70;;
78484;SDS011;67773;50.806;8.776;2023-06-26T05:16:05;12.52;;;8.95;;
78484;SDS011;67773;50.806;8.776;2023-06-26T05:18:30;14.30;;;10.57;;
78484;SDS011;67773;50.806;8.776;2023-06-26T05:20:56;14.53;;;10.20;;
78484;SDS011;67773;50.806;8.776;2023-06-26T05:23:21;14.88;;;11.98;;
78484;SDS011;67773;50.806;8.776;2023-06-26T05:25:50;15.88;;;11.02;;
78484;SDS011;67773;50.806;8.776;2023-06-26T05:28:16;14.27;;;10.45;;
78484;SDS011;67773;50.806;8.776;2023-06-26T05:30:41;15.48;;;11.23;;
78484;SDS011;67773;50.806;8.776;2023-06-26T05:33:07;12.00;;;9.77;;
78484;SDS011;67773;50.806;8.776;2023-06-26T05:35:35;11.45;;;9.82;;
78484;SDS011;67773;50.806;8.776;2023-06-26T05:38:01;13.10;;;9.88;;
78484;SDS011;67773;50.806;8.776;2023-06-26T05:40:27;11.45;;;9.15;;
78484;SDS011;67773;50.806;8.776;2023-06-26T05:42:52;12.20;;;9.20;;
78484;SDS011;67773;50.806;8.776;2023-06-26T05:45:17;11.00;;;9.23;;
78484;SDS011;67773;50.806;8.776;2023-06-26T05:47:43;10.83;;;8.97;;
78484;SDS011;67773;50.806;8.776;2023-06-26T05:50:09;13.80;;;9.27;;
78484;SDS011;67773;50.806;8.776;2023-06-26T05:52:35;12.95;;;9.50;;
78484;SDS011;67773;50.806;8.776;2023-06-26T05:55:02;11.73;;;9.20;;
78484;SDS011;67773;50.806;8.776;2023-06-26T05:57:28;11.75;;;9.98;;
78484;SDS011;67773;50.806;8.776;2023-06-26T05:59:55;11.85;;;9.45;;
78484;SDS011;67773;50.806;8.776;2023-06-26T06:02:20;10.15;;;8.63;;
78484;SDS011;67773;50.806;8.776;2023-06-26T06:04:46;13.00;;;8.27;;
78484;SDS011;67773;50.806;8.776;2023-06-26T06:07:11;9.77;;;8.05;;
78484;SDS011;67773;50.806;8.776;2023-06-26T06:09:37;9.98;;;7.72;;
78484;SDS011;67773;50.806;8.776;2023-06-26T06:12:03;10.52;;;8.07;;
78484;SDS011;67773;50.806;8.776;2023-06-26T06:14:29;9.85;;;8.43;;
78484;SDS011;67773;50.806;8.776;2023-06-26T06:16:55;12.77;;;8.70;;
78484;SDS011;67773;50.806;8.776;2023-06-26T06:19:20;11.63;;;9.43;;
78484;SDS011;67773;50.806;8.776;2023-06-26T06:21:46;9.02;;;6.88;;
78484;SDS011;67773;50.806;8.776;2023-06-26T06:24:11;10.00;;;7.30;;
78484;SDS011;67773;50.806;8.776;2023-06-26T06:26:36;21.60;;;14.03;;
78484;SDS011;67773;50.806;8.776;2023-06-26T06:29:02;10.50;;;7.43;;
78484;SDS011;67773;50.806;8.776;2023-06-26T06:31:28;10.60;;;7.28;;
78484;SDS011;67773;50.806;8.776;2023-06-26T06:33:53;7.60;;;6.63;;
78484;SDS011;67773;50.806;8.776;2023-06-26T06:36:19;8.77;;;6.28;;
78484;SDS011;67773;50.806;8.776;2023-06-26T06:38:44;8.87;;;6.10;;
78484;SDS011;67773;50.806;8.776;2023-06-26T06:41:10;7.32;;;6.00;;
78484;SDS011;67773;50.806;8.776;2023-06-26T06:43:36;7.05;;;5.82;;
78484;SDS011;67773;50.806;8.776;2023-06-26T06:46:01;9.23;;;6.63;;
78484;SDS011;67773;50.806;8.776;2023-06-26T06:48:27;9.40;;;6.18;;
78484;SDS011;67773;50.806;8.776;2023-06-26T06:50:52;9.10;;;6.22;;
78484;SDS011;67773;50.806;8.776;2023-06-26T06:53:18;9.00;;;5.90;;
78484;SDS011;67773;50.806;8.776;2023-06-26T06:55:45;9.23;;;6.13;;
78484;SDS011;67773;50.806;8.776;2023-06-26T06:58:11;9.10;;;6.43;;
78484;SDS011;67773;50.806;8.776;2023-06-26T07:00:36;8.13;;;6.22;;
78484;SDS011;67773;50.806;8.776;2023-06-26T07:03:01;6.70;;;6.00;;
78484;SDS011;67773;50.806;8.776;2023-06-26T07:05:27;9.68;;;6.13;;
78484;SDS011;67773;50.806;8.776;2023-06-26T07:07:53;9.88;;;6.57;;
78484;SDS011;67773;50.806;8.776;2023-06-26T07:10:18;7.50;;;5.93;;
78484;SDS011;67773;50.806;8.776;2023-06-26T07:12:43;7.07;;;6.00;;
78484;SDS011;67773;50.806;8.776;2023-06-26T07:15:09;7.38;;;5.68;;
78484;SDS011;67773;50.806;8.776;2023-06-26T07:17:35;8.88;;;6.68;;
78484;SDS011;67773;50.806;8.776;2023-06-26T07:20:02;9.30;;;6.25;;
78484;SDS011;67773;50.806;8.776;2023-06-26T07:22:35;7.95;;;5.90;;
78484;SDS011;67773;50.806;8.776;2023-06-26T07:25:01;6.32;;;5.30;;
78484;SDS011;67773;50.806;8.776;2023-06-26T07:27:29;7.00;;;5.85;;
78484;SDS011;67773;50.806;8.776;2023-06-26T07:29:54;13.88;;;8.40;;
78484;SDS011;67773;50.806;8.776;2023-06-26T07:32:19;7.10;;;5.60;;
78484;SDS011;67773;50.806;8.776;2023-06-26T07:34:45;7.37;;;5.70;;
78484;SDS011;67773;50.806;8.776;2023-06-26T07:37:10;7.67;;;6.30;;
78484;SDS011;67773;50.806;8.776;2023-06-26T07:39:35;13.80;;;9.63;;
78484;SDS011;67773;50.806;8.776;2023-06-26T07:42:01;8.27;;;6.33;;
78484;SDS011;67773;50.806;8.776;2023-06-26T07:44:26;8.57;;;6.10;;
78484;SDS011;67773;50.806;8.776;2023-06-26T07:46:52;7.38;;;5.78;;
78484;SDS011;67773;50.806;8.776;2023-06-26T07:49:17;8.27;;;6.13;;
78484;SDS011;67773;50.806;8.776;2023-06-26T07:51:43;8.10;;;5.80;;
78484;SDS011;67773;50.806;8.776;2023-06-26T07:54:08;9.67;;;6.10;;
78484;SDS011;67773;50.806;8.776;2023-06-26T07:59:34;7.40;;;5.95;;
78484;SDS011;67773;50.806;8.776;2023-06-26T08:02:00;7.25;;;5.82;;
78484;SDS011;67773;50.806;8.776;2023-06-26T08:04:27;8.45;;;5.85;;
78484;SDS011;67773;50.806;8.776;2023-06-26T08:06:55;11.05;;;8.98;;
78484;SDS011;67773;50.806;8.776;2023-06-26T08:09:22;8.80;;;6.22;;
78484;SDS011;67773;50.806;8.776;2023-06-26T08:11:49;6.68;;;5.60;;
78484;SDS011;67773;50.806;8.776;2023-06-26T08:14:15;8.07;;;6.05;;
78484;SDS011;67773;50.806;8.776;2023-06-26T08:16:41;7.78;;;6.10;;
78484;SDS011;67773;50.806;8.776;2023-06-26T08:19:07;9.25;;;5.88;;
78484;SDS011;67773;50.806;8.776;2023-06-26T08:21:33;7.70;;;6.10;;
78484;SDS011;67773;50.806;8.776;2023-06-26T08:23:59;7.47;;;6.35;;
78484;SDS011;67773;50.806;8.776;2023-06-26T08:26:24;14.57;;;9.75;;
78484;SDS011;67773;50.806;8.776;2023-06-26T08:28:49;8.70;;;6.30;;
78484;SDS011;67773;50.806;8.776;2023-06-26T08:31:15;6.30;;;5.33;;
78484;SDS011;67773;50.806;8.776;2023-06-26T08:33:41;7.35;;;5.22;;
78484;SDS011;67773;50.806;8.776;2023-06-26T08:36:06;8.43;;;5.88;;
78484;SDS011;67773;50.806;8.776;2023-06-26T08:38:32;6.93;;;5.63;;
78484;SDS011;67773;50.806;8.776;2023-06-26T08:40:57;7.80;;;5.65;;
78484;SDS011;67773;50.806;8.776;2023-06-26T08:43:23;7.50;;;6.03;;
78484;SDS011;67773;50.806;8.776;2023-06-26T08:45:49;8.10;;;5.80;;
78484;SDS011;67773;50.806;8.776;2023-06-26T08:48:16;7.07;;;5.90;;
78484;SDS011;67773;50.806;8.776;2023-06-26T08:50:42;7.97;;;5.93;;
78484;SDS011;67773;50.806;8.776;2023-06-26T08:55:55;7.57;;;5.30;;
78484;SDS011;67773;50.806;8.776;2023-06-26T08:58:23;12.32;;;6.78;;
78484;SDS011;67773;50.806;8.776;2023-06-26T09:00:48;13.07;;;6.28;;
78484;SDS011;67773;50.806;8.776;2023-06-26T09:03:14;16.10;;;7.57;;
78484;SDS011;67773;50.806;8.776;2023-06-26T09:05:40;9.02;;;6.30;;
78484;SDS011;67773;50.806;8.776;2023-06-26T09:08:06;12.40;;;7.47;;
78484;SDS011;67773;50.806;8.776;2023-06-26T09:10:32;137.68;;;30.13;;
78484;SDS011;67773;50.806;8.776;2023-06-26T09:12:58;12.43;;;6.43;;
78484;SDS011;67773;50.806;8.776;2023-06-26T09:15:25;27.45;;;9.77;;
78484;SDS011;67773;50.806;8.776;2023-06-26T09:17:51;6.20;;;5.55;;
78484;SDS011;67773;50.806;8.776;2023-06-26T09:20:22;7.53;;;6.05;;
78484;SDS011;67773;50.806;8.776;2023-06-26T09:22:47;7.57;;;5.60;;
78484;SDS011;67773;50.806;8.776;2023-06-26T09:25:13;6.55;;;5.38;;
78484;SDS011;67773;50.806;8.776;2023-06-26T09:27:39;6.95;;;5.72;;
78484;SDS011;67773;50.806;8.776;2023-06-26T09:30:05;7.75;;;5.20;;
78484;SDS011;67773;50.806;8.776;2023-06-26T09:32:35;13.02;;;7.03;;
78484;SDS011;67773;50.806;8.776;2023-06-26T09:35:04;7.30;;;5.38;;
78484;SDS011;67773;50.806;8.776;2023-06-26T09:37:30;14.60;;;6.45;;
78484;SDS011;67773;50.806;8.776;2023-06-26T09:39:55;7.77;;;5.30;;
78484;SDS011;67773;50.806;8.776;2023-06-26T09:42:22;6.82;;;5.45;;
78484;SDS011;67773;50.806;8.776;2023-06-26T09:44:48;10.27;;;6.00;;
78484;SDS011;67773;50.806;8.776;2023-06-26T09:47:16;7.95;;;5.60;;
78484;SDS011;67773;50.806;8.776;2023-06-26T09:49:43;7.35;;;4.85;;
78484;SDS011;67773;50.806;8.776;2023-06-26T09:52:09;8.35;;;5.25;;
78484;SDS011;67773;50.806;8.776;2023-06-26T09:54:35;10.18;;;5.97;;
78484;SDS011;67773;50.806;8.776;2023-06-26T09:57:07;6.57;;;4.38;;
78484;SDS011;67773;50.806;8.776;2023-06-26T09:59:33;7.13;;;5.25;;
78484;SDS011;67773;50.806;8.776;2023-06-26T10:01:59;6.63;;;4.32;;
78484;SDS011;67773;50.806;8.776;2023-06-26T10:04:25;6.95;;;4.80;;
78484;SDS011;67773;50.806;8.776;2023-06-26T10:06:51;6.80;;;4.43;;
78484;SDS011;67773;50.806;8.776;2023-06-26T10:09:19;8.52;;;4.60;;
78484;SDS011;67773;50.806;8.776;2023-06-26T10:11:47;7.05;;;4.60;;
78484;SDS011;67773;50.806;8.776;2023-06-26T10:14:20;8.43;;;5.88;;
78484;SDS011;67773;50.806;8.776;2023-06-26T10:16:47;7.72;;;4.82;;
78484;SDS011;67773;50.806;8.776;2023-06-26T10:19:14;7.65;;;5.13;;
78484;SDS011;67773;50.806;8.776;2023-06-26T10:21:44;6.40;;;4.95;;
78484;SDS011;67773;50.806;8.776;2023-06-26T10:24:10;8.15;;;5.15;;
78484;SDS011;67773;50.806;8.776;2023-06-26T10:26:38;8.18;;;5.38;;
78484;SDS011;67773;50.806;8.776;2023-06-26T10:29:09;6.95;;;5.05;;
78484;SDS011;67773;50.806;8.776;2023-06-26T10:31:35;5.90;;;4.72;;
78484;SDS011;67773;50.806;8.776;2023-06-26T10:34:03;8.35;;;4.82;;
78484;SDS011;67773;50.806;8.776;2023-06-26T10:36:31;6.60;;;4.65;;
78484;SDS011;67773;50.806;8.776;2023-06-26T10:38:58;7.03;;;4.82;;
78484;SDS011;67773;50.806;8.776;2023-06-26T10:41:30;7.97;;;4.60;;
78484;SDS011;67773;50.806;8.776;2023-06-26T10:46:55;6.57;;;4.45;;
78484;SDS011;67773;50.806;8.776;2023-06-26T10:49:24;5.82;;;4.70;;
78484;SDS011;67773;50.806;8.776;2023-06-26T10:51:51;5.47;;;4.50;;
78484;SDS011;67773;50.806;8.776;2023-06-26T10:54:19;6.38;;;4.28;;
78484;SDS011;67773;50.806;8.776;2023-06-26T10:56:48;6.47;;;4.40;;
78484;SDS011;67773;50.806;8.776;2023-06-26T10:59:18;5.85;;;4.50;;
78484;SDS011;67773;50.806;8.776;2023-06-26T11:01:46;5.60;;;4.30;;
78484;SDS011;67773;50.806;8.776;2023-06-26T11:04:18;10.68;;;6.57;;
78484;SDS011;67773;50.806;8.776;2023-06-26T11:12:43;6.05;;;4.43;;
78484;SDS011;67773;50.806;8.776;2023-06-26T11:15:10;5.28;;;4.78;;
78484;SDS011;67773;50.806;8.776;2023-06-26T11:17:39;5.80;;;4.43;;
78484;SDS011;67773;50.806;8.776;2023-06-26T11:20:05;5.85;;;4.75;;
78484;SDS011;67773;50.806;8.776;2023-06-26T11:22:36;8.35;;;5.88;;
78484;SDS011;67773;50.806;8.776;2023-06-26T11:25:02;7.50;;;6.15;;
78484;SDS011;67773;50.806;8.776;2023-06-26T11:30:03;7.90;;;6.25;;
78484;SDS011;67773;50.806;8.776;2023-06-26T11:32:30;17.00;;;6.55;;
78484;SDS011;67773;50.806;8.776;2023-06-26T11:34:57;7.47;;;5.65;;
78484;SDS011;67773;50.806;8.776;2023-06-26T11:37:23;7.72;;;5.68;;
78484;SDS011;67773;50.806;8.776;2023-06-26T11:39:49;7.68;;;6.07;;
78484;SDS011;67773;50.806;8.776;2023-06-26T11:42:15;16.75;;;6.28;;
78484;SDS011;67773;50.806;8.776;2023-06-26T11:44:41;7.27;;;6.00;;
78484;SDS011;67773;50.806;8.776;2023-06-26T11:47:14;9.02;;;6.68;;
78484;SDS011;67773;50.806;8.776;2023-06-26T11:49:46;7.43;;;6.57;;
78484;SDS011;67773;50.806;8.776;2023-06-26T11:54:39;7.55;;;5.93;;
78484;SDS011;67773;50.806;8.776;2023-06-26T11:57:05;7.53;;;6.30;;
78484;SDS011;67773;50.806;8.776;2023-06-26T11:59:34;9.63;;;5.65;;
78484;SDS011;67773;50.806;8.776;2023-06-26T12:02:04;8.95;;;5.82;;
78484;SDS011;67773;50.806;8.776;2023-06-26T12:04:30;11.27;;;7.50;;
78484;SDS011;67773;50.806;8.776;2023-06-26T12:06:55;11.23;;;7.85;;
78484;SDS011;67773;50.806;8.776;2023-06-26T12:09:22;9.02;;;6.28;;
78484;SDS011;67773;50.806;8.776;2023-06-26T12:11:48;8.15;;;6.53;;
78484;SDS011;67773;50.806;8.776;2023-06-26T12:16:44;6.88;;;5.78;;
78484;SDS011;67773;50.806;8.776;2023-06-26T12:19:10;8.45;;;5.95;;
78484;SDS011;67773;50.806;8.776;2023-06-26T12:24:01;7.47;;;4.60;;
78484;SDS011;67773;50.806;8.776;2023-06-26T12:26:27;6.50;;;4.53;;
78484;SDS011;67773;50.806;8.776;2023-06-26T12:29:02;5.97;;;4.90;;
78484;SDS011;67773;50.806;8.776;2023-06-26T12:31:27;6.40;;;4.90;;
78484;SDS011;67773;50.806;8.776;2023-06-26T12:33:52;6.70;;;4.53;;
78484;SDS011;67773;50.806;8.776;2023-06-26T12:36:17;5.25;;;4.40;;
78484;SDS011;67773;50.806;8.776;2023-06-26T12:38:44;8.43;;;4.40;;
78484;SDS011;67773;50.806;8.776;2023-06-26T12:41:11;5.45;;;4.03;;
78484;SDS011;67773;50.806;8.776;2023-06-26T12:43:40;7.07;;;4.53;;
78484;SDS011;67773;50.806;8.776;2023-06-26T12:46:06;4.40;;;3.50;;
78484;SDS011;67773;50.806;8.776;2023-06-26T12:48:38;5.05;;;3.35;;
78484;SDS011;67773;50.806;8.776;2023-06-26T12:51:14;5.22;;;3.60;;
78484;SDS011;67773;50.806;8.776;2023-06-26T12:53:41;5.00;;;3.38;;
78484;SDS011;67773;50.806;8.776;2023-06-26T12:56:07;8.70;;;4.07;;
78484;SDS011;67773;50.806;8.776;2023-06-26T12:58:37;5.47;;;3.33;;
78484;SDS011;67773;50.806;8.776;2023-06-26T13:01:03;5.43;;;3.38;;
78484;SDS011;67773;50.806;8.776;2023-06-26T13:03:29;8.05;;;3.85;;
78484;SDS011;67773;50.806;8.776;2023-06-26T13:05:55;5.90;;;3.75;;
78484;SDS011;67773;50.806;8.776;2023-06-26T13:08:20;5.82;;;3.47;;
78484;SDS011;67773;50.806;8.776;2023-06-26T13:10:45;5.37;;;3.30;;
78484;SDS011;67773;50.806;8.776;2023-06-26T13:13:11;5.33;;;2.97;;
78484;SDS011;67773;50.806;8.776;2023-06-26T13:15:36;6.55;;;4.53;;
78484;SDS011;67773;50.806;8.776;2023-06-26T13:18:02;5.53;;;2.70;;
78484;SDS011;67773;50.806;8.776;2023-06-26T13:20:27;3.42;;;2.35;;
78484;SDS011;67773;50.806;8.776;2023-06-26T13:22:53;5.07;;;2.90;;
78484;SDS011;67773;50.806;8.776;2023-06-26T13:25:19;10.77;;;2.67;;
78484;SDS011;67773;50.806;8.776;2023-06-26T13:27:44;7.57;;;2.60;;
78484;SDS011;67773;50.806;8.776;2023-06-26T13:30:10;6.05;;;2.63;;
78484;SDS011;67773;50.806;8.776;2023-06-26T13:32:36;6.53;;;2.85;;
78484;SDS011;67773;50.806;8.776;2023-06-26T13:35:02;3.53;;;2.90;;
78484;SDS011;67773;50.806;8.776;2023-06-26T13:37:28;3.40;;;2.50;;
78484;SDS011;67773;50.806;8.776;2023-06-26T13:39:53;3.83;;;2.55;;
78484;SDS011;67773;50.806;8.776;2023-06-26T13:42:19;6.17;;;2.63;;
78484;SDS011;67773;50.806;8.776;2023-06-26T13:44:44;3.63;;;2.30;;
78484;SDS011;67773;50.806;8.776;2023-06-26T13:47:12;3.60;;;2.55;;
78484;SDS011;67773;50.806;8.776;2023-06-26T13:49:38;4.50;;;2.40;;
78484;SDS011;67773;50.806;8.776;2023-06-26T13:52:04;4.15;;;2.55;;
78484;SDS011;67773;50.806;8.776;2023-06-26T13:54:30;5.82;;;2.88;;
78484;SDS011;67773;50.806;8.776;2023-06-26T13:56:55;5.77;;;2.73;;
78484;SDS011;67773;50.806;8.776;2023-06-26T13:59:22;5.80;;;2.75;;
78484;SDS011;67773;50.806;8.776;2023-06-26T14:01:50;4.80;;;2.90;;
78484;SDS011;67773;50.806;8.776;2023-06-26T14:04:15;8.30;;;3.05;;
78484;SDS011;67773;50.806;8.776;2023-06-26T14:06:40;16.37;;;13.07;;
78484;SDS011;67773;50.806;8.776;2023-06-26T14:09:07;6.18;;;2.80;;
78484;SDS011;67773;50.806;8.776;2023-06-26T14:11:33;4.85;;;2.50;;
78484;SDS011;67773;50.806;8.776;2023-06-26T14:13:59;3.58;;;2.28;;
78484;SDS011;67773;50.806;8.776;2023-06-26T14:16:24;5.95;;;2.35;;
78484;SDS011;67773;50.806;8.776;2023-06-26T14:18:50;3.70;;;2.45;;
78484;SDS011;67773;50.806;8.776;2023-06-26T14:21:16;5.45;;;2.42;;
78484;SDS011;67773;50.806;8.776;2023-06-26T14:23:41;4.63;;;2.17;;
78484;SDS011;67773;50.806;8.776;2023-06-26T14:26:06;6.18;;;2.70;;
78484;SDS011;67773;50.806;8.776;2023-06-26T14:28:32;5.03;;;2.43;;
78484;SDS011;67773;50.806;8.776;2023-06-26T14:30:57;4.13;;;2.20;;
78484;SDS011;67773;50.806;8.776;2023-06-26T14:33:22;4.10;;;2.20;;
78484;SDS011;67773;50.806;8.776;2023-06-26T14:35:47;5.83;;;2.47;;
78484;SDS011;67773;50.806;8.776;2023-06-26T14:38:13;4.13;;;2.10;;
78484;SDS011;67773;50.806;8.776;2023-06-26T14:40:38;6.15;;;2.30;;
78484;SDS011;67773;50.806;8.776;2023-06-26T14:43:03;6.77;;;3.53;;
78484;SDS011;67773;50.806;8.776;2023-06-26T14:45:29;14.57;;;9.33;;
78484;SDS011;67773;50.806;8.776;2023-06-26T14:47:54;4.60;;;2.80;;
78484;SDS011;67773;50.806;8.776;2023-06-26T14:50:19;14.55;;;8.55;;
78484;SDS011;67773;50.806;8.776;2023-06-26T14:52:45;4.17;;;2.20;;
78484;SDS011;67773;50.806;8.776;2023-06-26T14:55:10;3.73;;;2.33;;
78484;SDS011;67773;50.806;8.776;2023-06-26T14:57:36;3.53;;;2.40;;
78484;SDS011;67773;50.806;8.776;2023-06-26T15:00:01;9.37;;;6.03;;
78484;SDS011;67773;50.806;8.776;2023-06-26T15:02:28;3.03;;;2.22;;
78484;SDS011;67773;50.806;8.776;2023-06-26T15:04:53;6.30;;;2.50;;
78484;SDS011;67773;50.806;8.776;2023-06-26T15:07:18;4.03;;;2.60;;
78484;SDS011;67773;50.806;8.776;2023-06-26T15:09:44;4.00;;;2.40;;